createdAt,value
2019-03-17T00:00:06.967Z,6.64
2019-03-17T00:01:06.954Z,6.67
2019-03-17T00:02:06.927Z,6.68
2019-03-17T00:03:06.917Z,6.67
2019-03-17T00:04:06.967Z,6.67
2019-03-17T00:05:06.954Z,6.68
2019-03-17T00:06:08.097Z,6.68
2019-03-17T00:07:06.962Z,6.63
2019-03-17T00:08:06.929Z,6.61
2019-03-17T00:09:07.001Z,6.6
2019-03-17T00:10:06.917Z,6.51
2019-03-17T00:11:07.027Z,6.54
2019-03-17T00:12:06.944Z,6.54
2019-03-17T00:13:06.931Z,6.53
2019-03-17T00:14:06.910Z,6.5
2019-03-17T00:15:06.987Z,6.43
2019-03-17T00:16:06.953Z,6.4
2019-03-17T00:17:06.949Z,6.43
2019-03-17T00:18:06.914Z,6.44
2019-03-17T00:19:06.931Z,6.41
2019-03-17T00:20:06.911Z,6.41
2019-03-17T00:21:06.901Z,6.43
2019-03-17T00:22:06.889Z,6.43
2019-03-17T00:23:06.923Z,6.46
2019-03-17T00:24:06.959Z,6.47
2019-03-17T00:25:10.554Z,6.44
2019-03-17T00:26:06.910Z,6.46
2019-03-17T00:27:06.923Z,6.48
2019-03-17T00:28:06.898Z,6.48
2019-03-17T00:29:06.915Z,6.51
2019-03-17T00:30:06.993Z,6.48
2019-03-17T00:31:06.893Z,6.51
2019-03-17T00:32:06.898Z,6.54
2019-03-17T00:33:06.939Z,6.56
2019-03-17T00:34:07.197Z,6.57
2019-03-17T00:35:06.881Z,6.57
2019-03-17T00:36:06.904Z,6.56
2019-03-17T00:37:06.894Z,6.57
2019-03-17T00:38:06.876Z,6.57
2019-03-17T00:39:06.932Z,6.58
2019-03-17T00:40:06.910Z,6.57
2019-03-17T00:41:06.882Z,6.58
2019-03-17T00:42:07.012Z,6.6
2019-03-17T00:43:06.876Z,6.64
2019-03-17T00:44:06.885Z,6.58
2019-03-17T00:45:06.881Z,6.6
2019-03-17T00:46:06.896Z,6.58
2019-03-17T00:47:07.034Z,6.61
2019-03-17T00:48:06.934Z,6.67
2019-03-17T00:49:06.897Z,6.75
2019-03-17T00:50:06.888Z,6.81
2019-03-17T00:51:06.870Z,6.83
2019-03-17T00:52:06.868Z,6.84
2019-03-17T00:53:06.849Z,6.94
2019-03-17T00:54:06.864Z,6.99
2019-03-17T00:55:06.886Z,6.99
2019-03-17T00:56:06.946Z,7.05
2019-03-17T00:57:06.849Z,7.11
2019-03-17T00:58:06.840Z,7.12
2019-03-17T00:59:06.855Z,7.18
2019-03-17T01:00:06.853Z,7.24
2019-03-17T01:01:06.859Z,7.3
2019-03-17T01:02:06.840Z,7.34
2019-03-17T01:03:06.830Z,7.47
2019-03-17T01:04:06.831Z,7.51
2019-03-17T01:05:06.848Z,7.51
2019-03-17T01:06:06.834Z,7.55
2019-03-17T01:07:07.201Z,7.58
2019-03-17T01:08:06.829Z,7.61
2019-03-17T01:09:06.846Z,7.65
2019-03-17T01:10:06.832Z,7.75
2019-03-17T01:11:06.827Z,7.75
2019-03-17T01:12:07.744Z,7.78
2019-03-17T01:13:07.043Z,7.82
2019-03-17T01:14:06.877Z,7.86
2019-03-17T01:15:06.850Z,7.86
2019-03-17T01:16:06.833Z,7.98
2019-03-17T01:17:06.802Z,7.96
2019-03-17T01:18:06.811Z,7.98
2019-03-17T01:19:06.824Z,7.98
2019-03-17T01:20:06.823Z,7.98
2019-03-17T01:21:06.821Z,7.98
2019-03-17T01:22:06.805Z,7.95
2019-03-17T01:23:06.807Z,7.95
2019-03-17T01:24:06.814Z,7.98
2019-03-17T01:25:06.809Z,7.95
2019-03-17T01:26:06.800Z,7.96
2019-03-17T01:27:06.811Z,7.93
2019-03-17T01:28:06.799Z,7.95
2019-03-17T01:29:06.804Z,7.92
2019-03-17T01:30:06.804Z,7.95
2019-03-17T01:31:06.829Z,7.93
2019-03-17T01:32:06.832Z,7.91
2019-03-17T01:33:06.800Z,7.91
2019-03-17T01:34:06.830Z,7.89
2019-03-17T01:35:10.467Z,7.86
2019-03-17T01:36:06.789Z,7.84
2019-03-17T01:37:06.790Z,7.85
2019-03-17T01:38:06.795Z,7.84
2019-03-17T01:39:06.847Z,7.84
2019-03-17T01:40:06.821Z,7.84
2019-03-17T01:41:06.774Z,7.8
2019-03-17T01:42:06.785Z,7.77
2019-03-17T01:43:06.771Z,7.75
2019-03-17T01:44:06.774Z,7.74
2019-03-17T01:45:06.800Z,7.71
2019-03-17T01:46:06.780Z,7.69
2019-03-17T01:47:06.774Z,7.69
2019-03-17T01:48:06.781Z,7.67
2019-03-17T01:49:06.773Z,7.65
2019-03-17T01:50:06.761Z,7.62
2019-03-17T01:51:06.765Z,7.61
2019-03-17T01:52:06.785Z,7.61
2019-03-17T01:53:06.761Z,7.58
2019-03-17T01:54:06.797Z,7.55
2019-03-17T01:55:06.838Z,7.55
2019-03-17T01:56:06.777Z,7.55
2019-03-17T01:57:06.742Z,7.51
2019-03-17T01:58:06.749Z,7.51
2019-03-17T01:59:06.778Z,7.47
2019-03-17T02:00:06.777Z,7.48
2019-03-17T02:01:06.782Z,7.47
2019-03-17T02:02:06.759Z,7.43
2019-03-17T02:03:06.747Z,7.39
2019-03-17T02:04:07.784Z,7.39
2019-03-17T02:05:06.760Z,7.34
2019-03-17T02:06:06.813Z,7.27
2019-03-17T02:07:06.776Z,7.27
2019-03-17T02:08:06.762Z,7.24
2019-03-17T02:09:06.756Z,7.23
2019-03-17T02:10:06.743Z,7.22
2019-03-17T02:11:06.751Z,7.2
2019-03-17T02:12:06.803Z,7.18
2019-03-17T02:13:06.735Z,7.16
2019-03-17T02:14:06.764Z,7.15
2019-03-17T02:15:06.733Z,7.15
2019-03-17T02:16:06.759Z,7.15
2019-03-17T02:17:06.753Z,7.11
2019-03-17T02:18:06.743Z,7.09
2019-03-17T02:19:06.721Z,7.05
2019-03-17T02:20:06.775Z,7.05
2019-03-17T02:21:06.721Z,7.03
2019-03-17T02:22:06.767Z,7.01
2019-03-17T02:23:06.779Z,6.95
2019-03-17T02:24:06.726Z,6.95
2019-03-17T02:25:06.741Z,6.95
2019-03-17T02:26:06.744Z,6.94
2019-03-17T02:27:06.742Z,6.94
2019-03-17T02:28:06.738Z,6.92
2019-03-17T02:29:06.741Z,6.85
2019-03-17T02:30:06.723Z,6.87
2019-03-17T02:31:06.735Z,6.81
2019-03-17T02:32:06.722Z,6.83
2019-03-17T02:33:06.771Z,6.74
2019-03-17T02:34:06.718Z,6.75
2019-03-17T02:35:06.707Z,6.8
2019-03-17T02:36:06.714Z,6.75
2019-03-17T02:37:06.720Z,6.75
2019-03-17T02:38:06.865Z,6.74
2019-03-17T02:39:06.807Z,6.73
2019-03-17T02:40:06.754Z,6.75
2019-03-17T02:41:06.750Z,6.75
2019-03-17T02:42:06.772Z,6.78
2019-03-17T02:43:06.728Z,6.8
2019-03-17T02:44:06.731Z,6.77
2019-03-17T02:45:06.695Z,6.75
2019-03-17T02:46:06.714Z,6.75
2019-03-17T02:47:06.691Z,6.74
2019-03-17T02:48:06.718Z,6.73
2019-03-17T02:49:06.699Z,6.7
2019-03-17T02:50:06.723Z,6.7
2019-03-17T02:51:06.685Z,6.67
2019-03-17T02:52:06.681Z,6.65
2019-03-17T02:53:06.714Z,6.65
2019-03-17T02:54:06.753Z,6.68
2019-03-17T02:55:06.693Z,6.67
2019-03-17T02:56:06.696Z,6.67
2019-03-17T02:57:06.717Z,6.65
2019-03-17T02:58:06.677Z,6.58
2019-03-17T02:59:06.671Z,6.56
2019-03-17T03:00:06.726Z,6.56
2019-03-17T03:01:06.695Z,6.56
2019-03-17T03:02:06.686Z,6.54
2019-03-17T03:03:06.696Z,6.54
2019-03-17T03:04:06.684Z,6.53
2019-03-17T03:05:06.689Z,6.54
2019-03-17T03:06:06.719Z,6.54
2019-03-17T03:07:06.714Z,6.51
2019-03-17T03:08:06.694Z,6.43
2019-03-17T03:09:06.683Z,6.43
2019-03-17T03:10:06.664Z,6.4
2019-03-17T03:11:06.695Z,6.4
2019-03-17T03:12:06.693Z,6.35
2019-03-17T03:13:06.698Z,6.33
2019-03-17T03:14:06.683Z,6.32
2019-03-17T03:15:06.657Z,6.33
2019-03-17T03:16:06.676Z,6.23
2019-03-17T03:17:06.687Z,6.2
2019-03-17T03:18:06.670Z,6.19
2019-03-17T03:19:06.648Z,6.18
2019-03-17T03:20:06.797Z,6.16
2019-03-17T03:21:06.740Z,6.12
2019-03-17T03:22:06.660Z,6.13
2019-03-17T03:23:06.638Z,6.11
2019-03-17T03:24:06.646Z,6.08
2019-03-17T03:25:06.650Z,6.12
2019-03-17T03:26:06.633Z,6.11
2019-03-17T03:27:06.666Z,5.87
2019-03-17T03:28:06.672Z,5.9
2019-03-17T03:29:06.646Z,5.94
2019-03-17T03:30:06.775Z,5.92
2019-03-17T03:31:06.734Z,5.9
2019-03-17T03:32:06.671Z,5.87
2019-03-17T03:33:06.671Z,5.88
2019-03-17T03:34:06.643Z,5.9
2019-03-17T03:35:06.668Z,5.87
2019-03-17T03:36:12.232Z,5.9
2019-03-17T03:37:06.642Z,5.92
2019-03-17T03:38:06.625Z,5.94
2019-03-17T03:39:06.742Z,5.91
2019-03-17T03:40:06.683Z,5.9
2019-03-17T03:41:06.632Z,5.92
2019-03-17T03:42:06.637Z,5.85
2019-03-17T03:43:06.790Z,5.84
2019-03-17T03:44:06.637Z,5.78
2019-03-17T03:45:06.653Z,5.75
2019-03-17T03:46:06.640Z,5.75
2019-03-17T03:47:06.630Z,5.78
2019-03-17T03:48:06.909Z,5.75
2019-03-17T03:49:06.643Z,5.75
2019-03-17T03:50:06.654Z,5.75
2019-03-17T03:51:06.616Z,5.73
2019-03-17T03:52:06.676Z,5.74
2019-03-17T03:53:06.896Z,5.73
2019-03-17T03:54:06.630Z,5.67
2019-03-17T03:55:06.736Z,5.67
2019-03-17T03:56:06.615Z,5.69
2019-03-17T03:57:06.618Z,5.71
2019-03-17T03:58:06.637Z,5.67
2019-03-17T03:59:06.630Z,5.67
2019-03-17T04:00:06.603Z,5.64
2019-03-17T04:01:06.597Z,5.64
2019-03-17T04:02:06.580Z,5.66
2019-03-17T04:03:06.604Z,5.66
2019-03-17T04:04:06.697Z,5.67
2019-03-17T04:05:06.971Z,5.64
2019-03-17T04:06:06.610Z,5.64
2019-03-17T04:07:06.593Z,5.66
2019-03-17T04:08:06.609Z,5.64
2019-03-17T04:09:06.579Z,5.64
2019-03-17T04:10:06.619Z,5.59
2019-03-17T04:11:06.569Z,5.51
2019-03-17T04:12:06.612Z,5.5
2019-03-17T04:13:06.627Z,5.51
2019-03-17T04:14:06.596Z,5.5
2019-03-17T04:15:06.564Z,5.5
2019-03-17T04:16:06.581Z,5.33
2019-03-17T04:17:06.602Z,5.38
2019-03-17T04:18:06.562Z,5.39
2019-03-17T04:19:06.620Z,5.4
2019-03-17T04:20:06.578Z,5.4
2019-03-17T04:21:06.621Z,5.42
2019-03-17T04:22:06.700Z,5.39
2019-03-17T04:23:06.572Z,5.45
2019-03-17T04:24:06.579Z,5.42
2019-03-17T04:25:06.557Z,5.46
2019-03-17T04:26:06.616Z,5.45
2019-03-17T04:27:06.590Z,5.42
2019-03-17T04:28:06.556Z,5.46
2019-03-17T04:29:06.563Z,5.36
2019-03-17T04:30:06.557Z,5.22
2019-03-17T04:31:06.576Z,5.28
2019-03-17T04:32:06.541Z,5.28
2019-03-17T04:33:06.665Z,5.29
2019-03-17T04:34:06.636Z,5.3
2019-03-17T04:35:06.559Z,5.33
2019-03-17T04:36:06.556Z,5.32
2019-03-17T04:37:06.534Z,5.33
2019-03-17T04:38:06.594Z,5.36
2019-03-17T04:39:06.537Z,5.36
2019-03-17T04:40:06.579Z,5.35
2019-03-17T04:41:06.572Z,5.38
2019-03-17T04:42:06.549Z,5.38
2019-03-17T04:43:06.589Z,5.4
2019-03-17T04:44:06.537Z,5.4
2019-03-17T04:45:06.546Z,5.4
2019-03-17T04:46:06.530Z,5.46
2019-03-17T04:47:06.523Z,5.43
2019-03-17T04:48:06.534Z,5.46
2019-03-17T04:49:06.532Z,5.47
2019-03-17T04:50:06.526Z,5.47
2019-03-17T04:51:06.518Z,5.29
2019-03-17T04:52:06.507Z,5.3
2019-03-17T04:53:06.521Z,5.32
2019-03-17T04:54:06.555Z,5.33
2019-03-17T04:55:06.591Z,5.33
2019-03-17T04:56:08.325Z,5.38
2019-03-17T04:57:06.516Z,5.1
2019-03-17T04:58:06.531Z,5.11
2019-03-17T04:59:06.519Z,5.14
2019-03-17T05:00:06.518Z,5.16
2019-03-17T05:01:06.498Z,5.16
2019-03-17T05:02:06.490Z,5.19
2019-03-17T05:03:06.531Z,5.16
2019-03-17T05:04:06.498Z,5.04
2019-03-17T05:05:06.509Z,5.07
2019-03-17T05:06:06.497Z,5.07
2019-03-17T05:07:06.503Z,5.11
2019-03-17T05:08:06.493Z,5.05
2019-03-17T05:09:06.478Z,5.05
2019-03-17T05:10:06.482Z,5.07
2019-03-17T05:11:06.495Z,4.91
2019-03-17T05:12:06.499Z,4.84
2019-03-17T05:13:06.476Z,4.84
2019-03-17T05:14:06.509Z,4.88
2019-03-17T05:15:06.513Z,4.9
2019-03-17T05:16:06.494Z,4.94
2019-03-17T05:17:06.620Z,4.94
2019-03-17T05:18:06.498Z,5
2019-03-17T05:19:06.477Z,4.94
2019-03-17T05:20:06.469Z,4.93
2019-03-17T05:21:06.470Z,4.95
2019-03-17T05:22:06.482Z,4.97
2019-03-17T05:23:06.555Z,4.98
2019-03-17T05:24:06.469Z,5.02
2019-03-17T05:25:06.485Z,5.07
2019-03-17T05:26:06.481Z,5.08
2019-03-17T05:27:06.467Z,5.15
2019-03-17T05:28:06.463Z,5.11
2019-03-17T05:29:06.470Z,5.16
2019-03-17T05:30:06.452Z,5.16
2019-03-17T05:31:06.461Z,5.21
2019-03-17T05:32:06.472Z,5.21
2019-03-17T05:33:06.550Z,5.26
2019-03-17T05:34:06.448Z,5.32
2019-03-17T05:35:06.464Z,5.33
2019-03-17T05:36:06.452Z,5.36
2019-03-17T05:37:07.255Z,5.39
2019-03-17T05:38:06.484Z,5.43
2019-03-17T05:39:06.521Z,5.49
2019-03-17T05:40:06.475Z,5.53
2019-03-17T05:41:06.456Z,5.57
2019-03-17T05:42:06.449Z,5.6
2019-03-17T05:43:06.447Z,5.75
2019-03-17T05:44:06.450Z,5.75
2019-03-17T05:45:06.449Z,5.7
2019-03-17T05:46:06.452Z,5.73
2019-03-17T05:47:06.487Z,5.73
2019-03-17T05:48:06.444Z,5.71
2019-03-17T05:49:06.441Z,5.73
2019-03-17T05:50:06.442Z,5.74
2019-03-17T05:51:06.523Z,5.75
2019-03-17T05:52:06.444Z,5.78
2019-03-17T05:53:06.471Z,5.8
2019-03-17T05:54:06.433Z,5.81
2019-03-17T05:55:06.414Z,5.91
2019-03-17T05:56:06.436Z,6.05
2019-03-17T05:57:06.443Z,6.35
2019-03-17T05:58:06.431Z,6.43
2019-03-17T05:59:06.430Z,6.47
2019-03-17T06:00:06.494Z,6.5
2019-03-17T06:01:06.427Z,6.56
2019-03-17T06:02:06.404Z,6.64
2019-03-17T06:03:06.411Z,6.65
2019-03-17T06:04:06.426Z,6.61
2019-03-17T06:05:06.449Z,6.65
2019-03-17T06:06:06.426Z,6.65
2019-03-17T06:07:19.296Z,6.64
2019-03-17T06:08:06.424Z,6.63
2019-03-17T06:09:06.393Z,6.63
2019-03-17T06:10:06.451Z,6.64
2019-03-17T06:11:06.443Z,6.63
2019-03-17T06:12:06.417Z,6.65
2019-03-17T06:13:06.407Z,6.67
2019-03-17T06:14:06.382Z,6.65
2019-03-17T06:15:06.437Z,6.68
2019-03-17T06:16:06.395Z,6.71
2019-03-17T06:17:06.412Z,6.75
2019-03-17T06:18:06.465Z,6.75
2019-03-17T06:19:06.384Z,6.81
2019-03-17T06:20:06.374Z,6.87
2019-03-17T06:21:06.684Z,6.92
2019-03-17T06:22:06.588Z,6.98
2019-03-17T06:23:06.400Z,7.01
2019-03-17T06:24:06.398Z,7.12
2019-03-17T06:25:06.430Z,7.16
2019-03-17T06:26:06.413Z,7.18
2019-03-17T06:27:06.430Z,7.26
2019-03-17T06:28:06.387Z,7.24
2019-03-17T06:29:06.388Z,7.26
2019-03-17T06:30:06.408Z,7.29
2019-03-17T06:31:06.360Z,7.3
2019-03-17T06:32:06.351Z,7.34
2019-03-17T06:33:06.374Z,7.34
2019-03-17T06:34:06.359Z,7.39
2019-03-17T06:35:06.422Z,7.4
2019-03-17T06:36:06.381Z,7.44
2019-03-17T06:37:06.406Z,7.43
2019-03-17T06:38:06.363Z,7.44
2019-03-17T06:39:06.362Z,7.46
2019-03-17T06:40:06.363Z,7.48
2019-03-17T06:41:06.379Z,7.48
2019-03-17T06:42:06.378Z,7.5
2019-03-17T06:43:06.542Z,7.53
2019-03-17T06:44:06.534Z,7.55
2019-03-17T06:45:06.402Z,7.54
2019-03-17T06:46:06.375Z,7.59
2019-03-17T06:47:06.407Z,7.65
2019-03-17T06:48:06.350Z,7.68
2019-03-17T06:49:06.338Z,7.81
2019-03-17T06:50:06.367Z,7.88
2019-03-17T06:51:06.355Z,7.95
2019-03-17T06:52:06.355Z,8.02
2019-03-17T06:53:06.365Z,8.16
2019-03-17T06:54:06.640Z,8.3
2019-03-17T06:55:06.331Z,8.34
2019-03-17T06:56:06.353Z,8.38
2019-03-17T06:57:06.334Z,8.4
2019-03-17T06:58:06.348Z,8.54
2019-03-17T06:59:06.363Z,8.54
2019-03-17T07:00:06.408Z,8.61
2019-03-17T07:01:06.377Z,8.71
2019-03-17T07:02:06.374Z,8.83
2019-03-17T07:03:06.385Z,8.91
2019-03-17T07:04:06.361Z,8.91
2019-03-17T07:05:06.462Z,9
2019-03-17T07:06:06.329Z,9.17
2019-03-17T07:07:06.307Z,9.17
2019-03-17T07:08:06.320Z,9.14
2019-03-17T07:09:06.325Z,9.44
2019-03-17T07:10:06.323Z,9.4
2019-03-17T07:11:06.338Z,9.49
2019-03-17T07:12:06.309Z,9.51
2019-03-17T07:13:06.314Z,9.49
2019-03-17T07:14:06.304Z,9.51
2019-03-17T07:15:06.388Z,9.48
2019-03-17T07:16:06.437Z,9.49
2019-03-17T07:17:06.411Z,9.62
2019-03-17T07:18:06.313Z,9.69
2019-03-17T07:19:06.343Z,9.69
2019-03-17T07:20:06.327Z,9.72
2019-03-17T07:21:06.312Z,9.78
2019-03-17T07:22:06.312Z,9.94
2019-03-17T07:23:06.338Z,9.94
2019-03-17T07:24:06.325Z,9.9
2019-03-17T07:25:06.417Z,9.92
2019-03-17T07:26:06.408Z,9.89
2019-03-17T07:27:06.469Z,9.88
2019-03-17T07:28:06.295Z,9.97
2019-03-17T07:29:06.296Z,10.13
2019-03-17T07:30:06.302Z,10.14
2019-03-17T07:31:06.329Z,10.24
2019-03-17T07:32:06.295Z,10.31
2019-03-17T07:33:06.302Z,10.34
2019-03-17T07:34:06.321Z,10.32
2019-03-17T07:35:06.294Z,10.38
2019-03-17T07:36:06.313Z,10.37
2019-03-17T07:37:06.348Z,10.39
2019-03-17T07:38:06.297Z,10.47
2019-03-17T07:39:12.597Z,10.49
2019-03-17T07:40:06.306Z,10.56
2019-03-17T07:41:06.373Z,10.52
2019-03-17T07:42:06.307Z,10.61
2019-03-17T07:43:06.291Z,10.58
2019-03-17T07:44:06.267Z,10.55
2019-03-17T07:45:06.275Z,10.58
2019-03-17T07:46:06.262Z,10.59
2019-03-17T07:47:06.369Z,10.58
2019-03-17T07:48:06.402Z,10.65
2019-03-17T07:49:06.349Z,10.59
2019-03-17T07:50:06.361Z,10.71
2019-03-17T07:51:06.265Z,10.78
2019-03-17T07:52:06.269Z,10.68
2019-03-17T07:53:06.263Z,10.73
2019-03-17T07:54:06.282Z,10.82
2019-03-17T07:55:06.295Z,10.93
2019-03-17T07:56:06.290Z,10.93
2019-03-17T07:57:06.409Z,10.93
2019-03-17T07:58:06.660Z,11.08
2019-03-17T07:59:06.362Z,11.1
2019-03-17T08:00:06.268Z,11.18
2019-03-17T08:01:06.233Z,11.21
2019-03-17T08:02:06.261Z,11.25
2019-03-17T08:03:06.300Z,11.28
2019-03-17T08:04:06.249Z,11.24
2019-03-17T08:05:06.269Z,11.34
2019-03-17T08:06:06.275Z,11.38
2019-03-17T08:07:06.240Z,11.37
2019-03-17T08:08:10.204Z,11.39
2019-03-17T08:09:06.245Z,11.44
2019-03-17T08:10:06.256Z,11.39
2019-03-17T08:11:06.273Z,11.42
2019-03-17T08:12:06.239Z,11.42
2019-03-17T08:13:06.305Z,11.48
2019-03-17T08:14:06.225Z,11.45
2019-03-17T08:15:06.232Z,11.48
2019-03-17T08:16:06.227Z,11.51
2019-03-17T08:17:06.225Z,11.55
2019-03-17T08:18:06.240Z,11.61
2019-03-17T08:19:06.368Z,11.64
2019-03-17T08:20:06.224Z,11.68
2019-03-17T08:21:06.233Z,11.62
2019-03-17T08:22:06.208Z,11.62
2019-03-17T08:23:06.224Z,11.64
2019-03-17T08:24:06.220Z,11.69
2019-03-17T08:25:06.229Z,11.62
2019-03-17T08:26:06.201Z,11.66
2019-03-17T08:27:06.222Z,11.69
2019-03-17T08:28:06.211Z,11.69
2019-03-17T08:29:06.203Z,11.69
2019-03-17T08:30:06.295Z,11.7
2019-03-17T08:31:06.227Z,11.7
2019-03-17T08:32:06.201Z,11.73
2019-03-17T08:33:06.199Z,11.79
2019-03-17T08:34:06.192Z,11.8
2019-03-17T08:35:06.353Z,11.83
2019-03-17T08:36:06.257Z,11.84
2019-03-17T08:37:06.208Z,11.86
2019-03-17T08:38:06.204Z,11.84
2019-03-17T08:39:06.230Z,11.86
2019-03-17T08:40:06.525Z,11.92
2019-03-17T08:41:06.241Z,11.9
2019-03-17T08:42:06.214Z,11.9
2019-03-17T08:43:06.201Z,11.94
2019-03-17T08:44:06.202Z,11.94
2019-03-17T08:45:06.227Z,11.96
2019-03-17T08:46:06.210Z,11.98
2019-03-17T08:47:06.209Z,12.01
2019-03-17T08:48:06.174Z,12.04
2019-03-17T08:49:06.214Z,12.05
2019-03-17T08:50:06.241Z,12.05
2019-03-17T08:51:06.225Z,12.07
2019-03-17T08:52:06.191Z,12.08
2019-03-17T08:53:06.206Z,12.11
2019-03-17T08:54:06.181Z,12.16
2019-03-17T08:55:06.239Z,12.14
2019-03-17T08:56:06.182Z,12.21
2019-03-17T08:57:06.168Z,12.23
2019-03-17T08:58:06.168Z,12.28
2019-03-17T08:59:06.153Z,12.27
2019-03-17T09:00:06.169Z,12.24
2019-03-17T09:01:06.196Z,12.23
2019-03-17T09:02:06.290Z,12.23
2019-03-17T09:03:06.161Z,12.25
2019-03-17T09:04:06.159Z,12.23
2019-03-17T09:05:06.175Z,12.24
2019-03-17T09:06:06.156Z,12.2
2019-03-17T09:07:06.152Z,12.18
2019-03-17T09:08:06.150Z,12.21
2019-03-17T09:09:06.160Z,12.2
2019-03-17T09:10:06.186Z,12.21
2019-03-17T09:11:06.144Z,12.24
2019-03-17T09:12:06.140Z,12.27
2019-03-17T09:13:06.148Z,12.24
2019-03-17T09:14:06.154Z,12.27
2019-03-17T09:15:06.149Z,12.29
2019-03-17T09:16:06.137Z,12.29
2019-03-17T09:17:14.999Z,12.29
2019-03-17T09:18:06.168Z,12.34
2019-03-17T09:19:06.132Z,12.35
2019-03-17T09:20:06.146Z,12.37
2019-03-17T09:21:06.148Z,12.34
2019-03-17T09:22:06.119Z,12.34
2019-03-17T09:23:06.154Z,12.35
2019-03-17T09:24:17.819Z,12.35
2019-03-17T09:25:06.146Z,12.34
2019-03-17T09:26:06.132Z,12.39
2019-03-17T09:27:06.109Z,12.35
2019-03-17T09:28:06.135Z,12.39
2019-03-17T09:29:06.259Z,12.42
2019-03-17T09:30:06.184Z,12.45
2019-03-17T09:31:07.883Z,12.46
2019-03-17T09:32:06.112Z,12.49
2019-03-17T09:33:06.155Z,12.48
2019-03-17T09:34:06.123Z,12.55
2019-03-17T09:35:06.127Z,12.55
2019-03-17T09:36:06.108Z,12.55
2019-03-17T09:37:06.208Z,12.53
2019-03-17T09:38:06.124Z,12.56
2019-03-17T09:39:06.146Z,12.59
2019-03-17T09:40:06.112Z,12.62
2019-03-17T09:41:06.112Z,12.69
2019-03-17T09:42:06.104Z,12.67
2019-03-17T09:43:06.158Z,12.69
2019-03-17T09:44:06.240Z,12.72
2019-03-17T09:45:06.651Z,12.69
2019-03-17T09:46:06.171Z,12.7
2019-03-17T09:47:06.214Z,12.7
2019-03-17T09:48:06.189Z,12.69
2019-03-17T09:49:06.118Z,12.72
2019-03-17T09:50:06.089Z,12.67
2019-03-17T09:51:06.149Z,12.69
2019-03-17T09:52:06.102Z,12.69
2019-03-17T09:53:06.089Z,12.65
2019-03-17T09:54:06.227Z,12.62
2019-03-17T09:55:06.087Z,12.62
2019-03-17T09:56:06.093Z,12.6
2019-03-17T09:57:06.220Z,12.56
2019-03-17T09:58:06.078Z,12.55
2019-03-17T09:59:06.137Z,12.49
2019-03-17T10:00:06.082Z,12.51
2019-03-17T10:01:06.063Z,12.49
2019-03-17T10:02:06.130Z,12.51
2019-03-17T10:03:06.070Z,12.49
2019-03-17T10:04:06.111Z,12.49
2019-03-17T10:05:06.079Z,12.48
2019-03-17T10:06:06.143Z,12.46
2019-03-17T10:07:06.604Z,12.48
2019-03-17T10:08:06.231Z,12.48
2019-03-17T10:09:06.085Z,12.46
2019-03-17T10:10:06.065Z,12.46
2019-03-17T10:11:06.172Z,12.48
2019-03-17T10:12:06.059Z,12.42
2019-03-17T10:13:06.064Z,12.49
2019-03-17T10:14:06.058Z,12.57
2019-03-17T10:15:06.077Z,12.57
2019-03-17T10:16:06.079Z,12.6
2019-03-17T10:17:06.077Z,12.6
2019-03-17T10:18:06.096Z,12.6
2019-03-17T10:19:06.079Z,12.63
2019-03-17T10:20:06.055Z,12.63
2019-03-17T10:21:06.049Z,12.62
2019-03-17T10:22:06.039Z,12.6
2019-03-17T10:23:06.076Z,12.59
2019-03-17T10:24:06.072Z,12.59
2019-03-17T10:25:06.068Z,12.55
2019-03-17T10:26:06.045Z,12.53
2019-03-17T10:27:06.136Z,12.51
2019-03-17T10:28:06.038Z,12.52
2019-03-17T10:29:06.188Z,12.53
2019-03-17T10:30:06.075Z,12.49
2019-03-17T10:31:06.098Z,12.51
2019-03-17T10:32:06.076Z,12.46
2019-03-17T10:33:06.069Z,12.48
2019-03-17T10:34:06.083Z,12.46
2019-03-17T10:35:06.089Z,12.46
2019-03-17T10:36:06.040Z,12.49
2019-03-17T10:37:06.079Z,12.48
2019-03-17T10:38:06.033Z,12.46
2019-03-17T10:39:12.979Z,12.49
2019-03-17T10:40:06.045Z,12.49
2019-03-17T10:41:06.104Z,12.49
2019-03-17T10:42:06.115Z,12.49
2019-03-17T10:43:06.046Z,12.49
2019-03-17T10:44:06.072Z,12.49
2019-03-17T10:45:06.034Z,12.46
2019-03-17T10:46:06.039Z,12.51
2019-03-17T10:47:06.045Z,12.53
2019-03-17T10:48:06.037Z,12.52
2019-03-17T10:49:06.039Z,12.55
2019-03-17T10:50:06.070Z,12.55
2019-03-17T10:51:06.254Z,12.56
2019-03-17T10:52:06.113Z,12.55
2019-03-17T10:53:06.046Z,12.53
2019-03-17T10:54:06.036Z,12.6
2019-03-17T10:55:06.001Z,12.6
2019-03-17T10:56:06.040Z,12.59
2019-03-17T10:57:06.074Z,12.67
2019-03-17T10:58:06.028Z,12.69
2019-03-17T10:59:05.993Z,12.73
2019-03-17T11:00:06.059Z,12.74
2019-03-17T11:01:06.099Z,12.76
2019-03-17T11:02:06.043Z,12.87
2019-03-17T11:03:06.012Z,12.94
2019-03-17T11:04:06.014Z,12.97
2019-03-17T11:05:06.052Z,13
2019-03-17T11:06:06.179Z,13.03
2019-03-17T11:07:06.057Z,13.03
2019-03-17T11:08:06.017Z,13.11
2019-03-17T11:09:06.021Z,13.19
2019-03-17T11:10:06.123Z,13.21
2019-03-17T11:11:06.006Z,13.21
2019-03-17T11:12:06.051Z,13.21
2019-03-17T11:13:06.106Z,13.21
2019-03-17T11:14:06.014Z,13.22
2019-03-17T11:15:06.079Z,13.27
2019-03-17T11:16:05.993Z,13.31
2019-03-17T11:17:06.091Z,13.32
2019-03-17T11:18:06.025Z,13.31
2019-03-17T11:19:05.970Z,13.32
2019-03-17T11:20:06.073Z,13.34
2019-03-17T11:21:06.005Z,13.28
2019-03-17T11:22:06.092Z,13.29
2019-03-17T11:23:06.024Z,13.29
2019-03-17T11:24:06.014Z,13.27
2019-03-17T11:25:05.988Z,13.24
2019-03-17T11:26:05.994Z,13.21
2019-03-17T11:27:06.300Z,13.24
2019-03-17T11:28:05.971Z,13.24
2019-03-17T11:29:06.071Z,13.24
2019-03-17T11:30:05.986Z,13.21
2019-03-17T11:31:05.999Z,13.21
2019-03-17T11:32:06.910Z,13.18
2019-03-17T11:33:05.991Z,13.14
2019-03-17T11:34:06.015Z,13.13
2019-03-17T11:35:05.968Z,13.11
2019-03-17T11:36:06.419Z,13.1
2019-03-17T11:37:05.959Z,13.1
2019-03-17T11:38:05.967Z,13.11
2019-03-17T11:39:05.948Z,13.1
2019-03-17T11:40:06.015Z,13.08
2019-03-17T11:41:05.994Z,13.11
2019-03-17T11:42:05.951Z,13.14
2019-03-17T11:43:05.941Z,13.17
2019-03-17T11:44:05.965Z,13.11
2019-03-17T11:45:05.959Z,13.07
2019-03-17T11:46:05.946Z,13.06
2019-03-17T11:47:05.961Z,13.08
2019-03-17T11:48:06.040Z,13.08
2019-03-17T11:49:05.936Z,13.1
2019-03-17T11:50:05.932Z,13.1
2019-03-17T11:51:05.966Z,13.04
2019-03-17T11:52:05.953Z,13.01
2019-03-17T11:53:05.966Z,13.06
2019-03-17T11:54:05.984Z,13.04
2019-03-17T11:55:05.924Z,13.04
2019-03-17T11:56:06.056Z,13
2019-03-17T11:57:05.936Z,12.94
2019-03-17T11:58:05.935Z,12.88
2019-03-17T11:59:05.951Z,12.8
2019-03-17T12:00:05.933Z,12.77
2019-03-17T12:01:06.000Z,12.76
2019-03-17T12:02:05.945Z,12.79
2019-03-17T12:03:05.915Z,12.77
2019-03-17T12:04:05.927Z,12.73
2019-03-17T12:05:05.913Z,12.67
2019-03-17T12:06:05.977Z,12.67
2019-03-17T12:07:05.936Z,12.62
2019-03-17T12:08:06.278Z,12.59
2019-03-17T12:09:05.956Z,12.59
2019-03-17T12:10:06.039Z,12.6
2019-03-17T12:11:05.986Z,12.57
2019-03-17T12:12:05.921Z,12.53
2019-03-17T12:13:05.992Z,12.51
2019-03-17T12:14:05.919Z,12.45
2019-03-17T12:15:05.911Z,12.44
2019-03-17T12:16:05.969Z,12.38
2019-03-17T12:17:06.146Z,12.35
2019-03-17T12:18:05.899Z,12.2
2019-03-17T12:19:05.884Z,12.16
2019-03-17T12:20:05.942Z,12.13
2019-03-17T12:21:05.905Z,12.11
2019-03-17T12:22:09.809Z,12.04
2019-03-17T12:23:05.981Z,12.01
2019-03-17T12:24:05.887Z,12.01
2019-03-17T12:25:05.929Z,11.89
2019-03-17T12:26:05.927Z,11.9
2019-03-17T12:27:05.899Z,11.84
2019-03-17T12:28:05.887Z,11.8
2019-03-17T12:29:05.915Z,11.83
2019-03-17T12:30:05.886Z,11.8
2019-03-17T12:31:05.902Z,11.75
2019-03-17T12:32:05.919Z,11.72
2019-03-17T12:33:05.962Z,11.69
2019-03-17T12:34:05.879Z,11.69
2019-03-17T12:35:05.870Z,11.65
2019-03-17T12:36:05.885Z,11.66
2019-03-17T12:37:05.878Z,11.64
2019-03-17T12:38:05.919Z,11.58
2019-03-17T12:39:06.088Z,11.51
2019-03-17T12:40:05.959Z,11.49
2019-03-17T12:41:05.890Z,11.28
2019-03-17T12:42:05.881Z,11.03
2019-03-17T12:43:05.887Z,10.96
2019-03-17T12:44:06.758Z,10.71
2019-03-17T12:45:05.903Z,10.48
2019-03-17T12:46:05.873Z,9.89
2019-03-17T12:47:05.868Z,9.66
2019-03-17T12:48:05.896Z,9.65
2019-03-17T12:49:05.852Z,9.52
2019-03-17T12:50:05.879Z,9.38
2019-03-17T12:51:05.851Z,9.27
2019-03-17T12:52:06.363Z,9.21
2019-03-17T12:53:08.209Z,9.19
2019-03-17T12:54:05.871Z,9.14
2019-03-17T12:55:05.865Z,8.88
2019-03-17T12:56:05.875Z,8.8
2019-03-17T12:57:05.853Z,8.65
2019-03-17T12:58:05.868Z,8.66
2019-03-17T12:59:05.868Z,8.66
2019-03-17T13:00:05.848Z,8.69
2019-03-17T13:01:05.937Z,8.71
2019-03-17T13:02:05.842Z,8.79
2019-03-17T13:03:05.883Z,8.68
2019-03-17T13:04:05.851Z,8.62
2019-03-17T13:05:05.847Z,8.58
2019-03-17T13:06:05.876Z,8.49
2019-03-17T13:07:05.845Z,8.47
2019-03-17T13:08:05.862Z,8.41
2019-03-17T13:09:05.948Z,8.41
2019-03-17T13:10:16.836Z,8.45